sensor_id;sensor_type;location;lat;lon;timestamp;P1;durP1;ratioP1;P2;durP2;ratioP2
64297;SDS011;50639;53.270;7.956;2023-09-30T00:00:21;25.00;;;6.32;;
64297;SDS011;50639;53.270;7.956;2023-09-30T00:02:47;21.05;;;5.88;;
64297;SDS011;50639;53.270;7.956;2023-09-30T00:05:12;20.83;;;5.20;;
64297;SDS011;50639;53.270;7.956;2023-09-30T00:07:39;19.02;;;5.82;;
64297;SDS011;50639;53.270;7.956;2023-09-30T00:10:05;24.17;;;5.90;;
64297;SDS011;50639;53.270;7.956;2023-09-30T00:12:31;26.35;;;6.43;;
64297;SDS011;50639;53.270;7.956;2023-09-30T00:14:57;23.77;;;5.78;;
64297;SDS011;50639;53.270;7.956;2023-09-30T00:17:23;31.60;;;6.18;;
64297;SDS011;50639;53.270;7.956;2023-09-30T00:19:48;22.27;;;6.88;;
64297;SDS011;50639;53.270;7.956;2023-09-30T00:22:14;21.40;;;5.90;;
64297;SDS011;50639;53.270;7.956;2023-09-30T00:24:39;19.15;;;6.55;;
64297;SDS011;50639;53.270;7.956;2023-09-30T00:27:05;25.55;;;6.22;;
64297;SDS011;50639;53.270;7.956;2023-09-30T00:29:30;25.30;;;6.25;;
64297;SDS011;50639;53.270;7.956;2023-09-30T00:31:56;20.52;;;5.82;;
64297;SDS011;50639;53.270;7.956;2023-09-30T00:34:21;23.13;;;5.60;;
64297;SDS011;50639;53.270;7.956;2023-09-30T00:36:47;26.38;;;5.80;;
64297;SDS011;50639;53.270;7.956;2023-09-30T00:39:12;20.10;;;5.85;;
64297;SDS011;50639;53.270;7.956;2023-09-30T00:41:38;23.13;;;5.68;;
64297;SDS011;50639;53.270;7.956;2023-09-30T00:44:04;23.35;;;6.93;;
64297;SDS011;50639;53.270;7.956;2023-09-30T00:46:31;19.65;;;6.35;;
64297;SDS011;50639;53.270;7.956;2023-09-30T00:48:57;23.40;;;5.90;;
64297;SDS011;50639;53.270;7.956;2023-09-30T00:51:23;22.00;;;5.65;;
64297;SDS011;50639;53.270;7.956;2023-09-30T00:53:50;27.92;;;6.50;;
64297;SDS011;50639;53.270;7.956;2023-09-30T00:58:45;23.88;;;6.43;;
64297;SDS011;50639;53.270;7.956;2023-09-30T01:01:12;25.67;;;6.75;;
64297;SDS011;50639;53.270;7.956;2023-09-30T01:03:38;23.15;;;7.13;;
64297;SDS011;50639;53.270;7.956;2023-09-30T01:06:04;27.50;;;7.38;;
64297;SDS011;50639;53.270;7.956;2023-09-30T01:08:29;22.15;;;6.18;;
64297;SDS011;50639;53.270;7.956;2023-09-30T01:10:56;22.92;;;6.55;;
64297;SDS011;50639;53.270;7.956;2023-09-30T01:13:22;23.73;;;6.60;;
64297;SDS011;50639;53.270;7.956;2023-09-30T01:15:47;26.73;;;6.70;;
64297;SDS011;50639;53.270;7.956;2023-09-30T01:18:12;22.08;;;7.05;;
64297;SDS011;50639;53.270;7.956;2023-09-30T01:20:38;28.63;;;7.75;;
64297;SDS011;50639;53.270;7.956;2023-09-30T01:23:03;27.30;;;8.00;;
64297;SDS011;50639;53.270;7.956;2023-09-30T01:25:29;27.63;;;7.05;;
64297;SDS011;50639;53.270;7.956;2023-09-30T01:27:55;24.65;;;6.55;;
64297;SDS011;50639;53.270;7.956;2023-09-30T01:30:21;29.92;;;7.03;;
64297;SDS011;50639;53.270;7.956;2023-09-30T01:32:48;19.92;;;6.78;;
64297;SDS011;50639;53.270;7.956;2023-09-30T01:35:14;16.95;;;6.13;;
64297;SDS011;50639;53.270;7.956;2023-09-30T01:37:40;22.58;;;6.93;;
64297;SDS011;50639;53.270;7.956;2023-09-30T01:40:05;23.17;;;6.68;;
64297;SDS011;50639;53.270;7.956;2023-09-30T01:42:36;19.25;;;7.00;;
64297;SDS011;50639;53.270;7.956;2023-09-30T01:45:03;19.05;;;6.28;;
64297;SDS011;50639;53.270;7.956;2023-09-30T01:47:29;28.58;;;7.53;;
64297;SDS011;50639;53.270;7.956;2023-09-30T01:49:54;26.40;;;5.78;;
64297;SDS011;50639;53.270;7.956;2023-09-30T01:52:20;23.08;;;6.78;;
64297;SDS011;50639;53.270;7.956;2023-09-30T01:54:46;22.65;;;6.53;;
64297;SDS011;50639;53.270;7.956;2023-09-30T01:57:11;20.27;;;6.13;;
64297;SDS011;50639;53.270;7.956;2023-09-30T01:59:37;22.50;;;6.88;;
64297;SDS011;50639;53.270;7.956;2023-09-30T02:02:02;22.45;;;7.13;;
64297;SDS011;50639;53.270;7.956;2023-09-30T02:04:27;20.17;;;6.43;;
64297;SDS011;50639;53.270;7.956;2023-09-30T02:06:53;25.55;;;6.53;;
64297;SDS011;50639;53.270;7.956;2023-09-30T02:09:18;22.38;;;6.57;;
64297;SDS011;50639;53.270;7.956;2023-09-30T02:11:44;32.55;;;7.47;;
64297;SDS011;50639;53.270;7.956;2023-09-30T02:14:09;22.90;;;6.57;;
64297;SDS011;50639;53.270;7.956;2023-09-30T02:16:37;26.90;;;6.75;;
64297;SDS011;50639;53.270;7.956;2023-09-30T02:19:03;24.95;;;6.30;;
64297;SDS011;50639;53.270;7.956;2023-09-30T02:21:29;20.52;;;6.88;;
64297;SDS011;50639;53.270;7.956;2023-09-30T02:23:54;20.70;;;6.00;;
64297;SDS011;50639;53.270;7.956;2023-09-30T02:26:20;22.98;;;6.03;;
64297;SDS011;50639;53.270;7.956;2023-09-30T02:31:13;23.35;;;6.55;;
64297;SDS011;50639;53.270;7.956;2023-09-30T02:33:38;27.23;;;6.20;;
64297;SDS011;50639;53.270;7.956;2023-09-30T02:36:07;20.45;;;5.47;;
64297;SDS011;50639;53.270;7.956;2023-09-30T02:38:34;27.67;;;6.97;;
64297;SDS011;50639;53.270;7.956;2023-09-30T02:41:02;17.35;;;5.30;;
64297;SDS011;50639;53.270;7.956;2023-09-30T02:43:28;20.60;;;5.78;;
64297;SDS011;50639;53.270;7.956;2023-09-30T02:45:55;19.65;;;6.07;;
64297;SDS011;50639;53.270;7.956;2023-09-30T02:48:20;21.70;;;5.40;;
64297;SDS011;50639;53.270;7.956;2023-09-30T02:50:46;22.27;;;6.68;;
64297;SDS011;50639;53.270;7.956;2023-09-30T02:53:12;22.17;;;5.80;;
64297;SDS011;50639;53.270;7.956;2023-09-30T02:55:43;17.63;;;5.43;;
64297;SDS011;50639;53.270;7.956;2023-09-30T02:58:09;20.55;;;5.63;;
64297;SDS011;50639;53.270;7.956;2023-09-30T03:00:36;26.08;;;5.43;;
64297;SDS011;50639;53.270;7.956;2023-09-30T03:03:03;21.92;;;5.30;;
64297;SDS011;50639;53.270;7.956;2023-09-30T03:05:29;18.98;;;5.35;;
64297;SDS011;50639;53.270;7.956;2023-09-30T03:07:57;17.73;;;4.97;;
64297;SDS011;50639;53.270;7.956;2023-09-30T03:10:22;18.40;;;5.00;;
64297;SDS011;50639;53.270;7.956;2023-09-30T03:12:54;19.55;;;5.57;;
64297;SDS011;50639;53.270;7.956;2023-09-30T03:15:21;23.40;;;6.38;;
64297;SDS011;50639;53.270;7.956;2023-09-30T03:17:47;19.30;;;5.50;;
64297;SDS011;50639;53.270;7.956;2023-09-30T03:20:14;22.88;;;5.72;;
64297;SDS011;50639;53.270;7.956;2023-09-30T03:22:43;21.90;;;5.63;;
64297;SDS011;50639;53.270;7.956;2023-09-30T03:25:12;21.33;;;6.22;;
64297;SDS011;50639;53.270;7.956;2023-09-30T03:27:40;25.60;;;5.53;;
64297;SDS011;50639;53.270;7.956;2023-09-30T03:30:06;23.52;;;5.50;;
64297;SDS011;50639;53.270;7.956;2023-09-30T03:32:32;17.30;;;5.20;;
64297;SDS011;50639;53.270;7.956;2023-09-30T03:35:07;26.95;;;6.00;;
64297;SDS011;50639;53.270;7.956;2023-09-30T03:37:36;24.33;;;5.50;;
64297;SDS011;50639;53.270;7.956;2023-09-30T03:40:02;18.63;;;4.90;;
64297;SDS011;50639;53.270;7.956;2023-09-30T03:42:39;25.15;;;6.35;;
64297;SDS011;50639;53.270;7.956;2023-09-30T03:45:05;20.25;;;6.07;;
64297;SDS011;50639;53.270;7.956;2023-09-30T03:47:33;22.80;;;4.95;;
64297;SDS011;50639;53.270;7.956;2023-09-30T03:50:03;19.63;;;5.65;;
64297;SDS011;50639;53.270;7.956;2023-09-30T03:52:30;19.80;;;5.77;;
64297;SDS011;50639;53.270;7.956;2023-09-30T03:54:58;22.38;;;5.38;;
64297;SDS011;50639;53.270;7.956;2023-09-30T03:57:24;27.50;;;6.37;;
64297;SDS011;50639;53.270;7.956;2023-09-30T03:59:50;21.58;;;5.38;;
64297;SDS011;50639;53.270;7.956;2023-09-30T04:02:15;18.73;;;6.03;;
64297;SDS011;50639;53.270;7.956;2023-09-30T04:04:41;19.67;;;5.55;;
64297;SDS011;50639;53.270;7.956;2023-09-30T04:07:06;21.52;;;6.00;;
64297;SDS011;50639;53.270;7.956;2023-09-30T04:09:35;16.33;;;5.30;;
64297;SDS011;50639;53.270;7.956;2023-09-30T04:12:01;21.05;;;5.68;;
64297;SDS011;50639;53.270;7.956;2023-09-30T04:14:26;20.98;;;6.18;;
64297;SDS011;50639;53.270;7.956;2023-09-30T04:16:52;19.90;;;6.05;;
64297;SDS011;50639;53.270;7.956;2023-09-30T04:19:19;20.23;;;5.82;;
64297;SDS011;50639;53.270;7.956;2023-09-30T04:21:45;22.73;;;6.03;;
64297;SDS011;50639;53.270;7.956;2023-09-30T04:24:10;22.13;;;6.18;;
64297;SDS011;50639;53.270;7.956;2023-09-30T04:26:36;20.13;;;6.45;;
64297;SDS011;50639;53.270;7.956;2023-09-30T04:29:02;20.95;;;5.78;;
64297;SDS011;50639;53.270;7.956;2023-09-30T04:31:36;21.23;;;5.93;;
64297;SDS011;50639;53.270;7.956;2023-09-30T04:34:04;20.05;;;5.75;;
64297;SDS011;50639;53.270;7.956;2023-09-30T04:36:30;20.30;;;6.47;;
64297;SDS011;50639;53.270;7.956;2023-09-30T04:38:56;22.45;;;5.97;;
64297;SDS011;50639;53.270;7.956;2023-09-30T04:41:22;23.88;;;6.68;;
64297;SDS011;50639;53.270;7.956;2023-09-30T04:43:47;21.10;;;6.60;;
64297;SDS011;50639;53.270;7.956;2023-09-30T04:46:13;18.20;;;6.00;;
64297;SDS011;50639;53.270;7.956;2023-09-30T04:48:39;20.70;;;6.25;;
64297;SDS011;50639;53.270;7.956;2023-09-30T04:51:08;21.55;;;7.03;;
64297;SDS011;50639;53.270;7.956;2023-09-30T04:53:33;21.40;;;6.20;;
64297;SDS011;50639;53.270;7.956;2023-09-30T04:55:59;22.45;;;6.50;;
64297;SDS011;50639;53.270;7.956;2023-09-30T04:58:25;16.80;;;6.00;;
64297;SDS011;50639;53.270;7.956;2023-09-30T05:00:50;15.73;;;6.30;;
64297;SDS011;50639;53.270;7.956;2023-09-30T05:03:16;17.35;;;6.32;;
64297;SDS011;50639;53.270;7.956;2023-09-30T05:05:41;16.80;;;5.72;;
64297;SDS011;50639;53.270;7.956;2023-09-30T05:08:07;20.85;;;6.75;;
64297;SDS011;50639;53.270;7.956;2023-09-30T05:10:32;26.13;;;7.20;;
64297;SDS011;50639;53.270;7.956;2023-09-30T05:12:58;17.30;;;5.70;;
64297;SDS011;50639;53.270;7.956;2023-09-30T05:15:24;33.70;;;7.53;;
64297;SDS011;50639;53.270;7.956;2023-09-30T05:17:50;18.08;;;6.10;;
64297;SDS011;50639;53.270;7.956;2023-09-30T05:20:16;21.70;;;7.22;;
64297;SDS011;50639;53.270;7.956;2023-09-30T05:22:42;19.75;;;6.13;;
64297;SDS011;50639;53.270;7.956;2023-09-30T05:25:12;21.75;;;7.22;;
64297;SDS011;50639;53.270;7.956;2023-09-30T05:27:38;21.87;;;6.60;;
64297;SDS011;50639;53.270;7.956;2023-09-30T05:30:04;18.65;;;6.90;;
64297;SDS011;50639;53.270;7.956;2023-09-30T05:32:31;24.38;;;6.38;;
64297;SDS011;50639;53.270;7.956;2023-09-30T05:34:57;21.90;;;7.05;;
64297;SDS011;50639;53.270;7.956;2023-09-30T05:37:23;19.08;;;6.80;;
64297;SDS011;50639;53.270;7.956;2023-09-30T05:39:49;18.40;;;6.07;;
64297;SDS011;50639;53.270;7.956;2023-09-30T05:42:15;24.30;;;7.20;;
64297;SDS011;50639;53.270;7.956;2023-09-30T05:44:41;22.87;;;7.13;;
64297;SDS011;50639;53.270;7.956;2023-09-30T05:47:07;21.60;;;6.00;;
64297;SDS011;50639;53.270;7.956;2023-09-30T05:49:33;21.20;;;6.70;;
64297;SDS011;50639;53.270;7.956;2023-09-30T05:51:59;23.85;;;7.18;;
64297;SDS011;50639;53.270;7.956;2023-09-30T05:54:24;17.00;;;6.03;;
64297;SDS011;50639;53.270;7.956;2023-09-30T05:56:50;25.00;;;6.78;;
64297;SDS011;50639;53.270;7.956;2023-09-30T05:59:15;21.58;;;6.30;;
64297;SDS011;50639;53.270;7.956;2023-09-30T06:01:41;22.60;;;6.75;;
64297;SDS011;50639;53.270;7.956;2023-09-30T06:04:07;17.73;;;6.35;;
64297;SDS011;50639;53.270;7.956;2023-09-30T06:06:33;21.73;;;6.55;;
64297;SDS011;50639;53.270;7.956;2023-09-30T06:08:59;19.42;;;6.93;;
64297;SDS011;50639;53.270;7.956;2023-09-30T06:11:24;21.38;;;6.97;;
64297;SDS011;50639;53.270;7.956;2023-09-30T06:13:56;19.10;;;6.25;;
64297;SDS011;50639;53.270;7.956;2023-09-30T06:16:26;25.33;;;6.57;;
64297;SDS011;50639;53.270;7.956;2023-09-30T06:18:52;24.60;;;6.45;;
64297;SDS011;50639;53.270;7.956;2023-09-30T06:21:20;23.58;;;7.10;;
64297;SDS011;50639;53.270;7.956;2023-09-30T06:23:49;20.53;;;6.93;;
64297;SDS011;50639;53.270;7.956;2023-09-30T06:26:17;19.50;;;6.68;;
64297;SDS011;50639;53.270;7.956;2023-09-30T06:28:42;19.88;;;6.72;;
64297;SDS011;50639;53.270;7.956;2023-09-30T06:31:08;18.73;;;7.15;;
64297;SDS011;50639;53.270;7.956;2023-09-30T06:33:34;23.38;;;6.97;;
64297;SDS011;50639;53.270;7.956;2023-09-30T06:36:01;16.65;;;6.38;;
64297;SDS011;50639;53.270;7.956;2023-09-30T06:38:27;18.65;;;6.57;;
64297;SDS011;50639;53.270;7.956;2023-09-30T06:40:52;19.83;;;6.90;;
64297;SDS011;50639;53.270;7.956;2023-09-30T06:43:19;24.85;;;7.22;;
64297;SDS011;50639;53.270;7.956;2023-09-30T06:45:44;20.33;;;6.32;;
64297;SDS011;50639;53.270;7.956;2023-09-30T06:48:11;18.45;;;6.65;;
64297;SDS011;50639;53.270;7.956;2023-09-30T06:50:47;15.98;;;6.63;;
64297;SDS011;50639;53.270;7.956;2023-09-30T06:53:14;17.80;;;6.50;;
64297;SDS011;50639;53.270;7.956;2023-09-30T06:55:41;19.38;;;6.82;;
64297;SDS011;50639;53.270;7.956;2023-09-30T06:58:08;17.35;;;6.53;;
64297;SDS011;50639;53.270;7.956;2023-09-30T07:00:35;24.77;;;6.97;;
64297;SDS011;50639;53.270;7.956;2023-09-30T07:03:04;17.45;;;6.40;;
64297;SDS011;50639;53.270;7.956;2023-09-30T07:05:29;20.95;;;6.65;;
64297;SDS011;50639;53.270;7.956;2023-09-30T07:07:55;18.55;;;7.10;;
64297;SDS011;50639;53.270;7.956;2023-09-30T07:10:21;21.35;;;6.97;;
64297;SDS011;50639;53.270;7.956;2023-09-30T07:12:46;18.17;;;6.57;;
64297;SDS011;50639;53.270;7.956;2023-09-30T07:15:12;15.07;;;5.53;;
64297;SDS011;50639;53.270;7.956;2023-09-30T07:17:39;19.83;;;6.40;;
64297;SDS011;50639;53.270;7.956;2023-09-30T07:20:05;21.60;;;6.88;;
64297;SDS011;50639;53.270;7.956;2023-09-30T07:22:31;17.83;;;6.70;;
64297;SDS011;50639;53.270;7.956;2023-09-30T07:25:00;18.30;;;6.75;;
64297;SDS011;50639;53.270;7.956;2023-09-30T07:27:26;18.25;;;6.07;;
64297;SDS011;50639;53.270;7.956;2023-09-30T07:29:51;19.98;;;6.20;;
64297;SDS011;50639;53.270;7.956;2023-09-30T07:32:17;19.60;;;7.15;;
64297;SDS011;50639;53.270;7.956;2023-09-30T07:34:42;20.08;;;5.95;;
64297;SDS011;50639;53.270;7.956;2023-09-30T07:37:08;20.88;;;6.53;;
64297;SDS011;50639;53.270;7.956;2023-09-30T07:39:33;17.85;;;6.20;;
64297;SDS011;50639;53.270;7.956;2023-09-30T07:42:00;20.80;;;6.67;;
64297;SDS011;50639;53.270;7.956;2023-09-30T07:44:26;19.55;;;5.78;;
64297;SDS011;50639;53.270;7.956;2023-09-30T07:46:52;20.42;;;6.50;;
64297;SDS011;50639;53.270;7.956;2023-09-30T07:49:17;18.45;;;6.50;;
64297;SDS011;50639;53.270;7.956;2023-09-30T07:51:43;19.33;;;6.80;;
64297;SDS011;50639;53.270;7.956;2023-09-30T07:54:08;19.42;;;6.43;;
64297;SDS011;50639;53.270;7.956;2023-09-30T07:56:33;18.77;;;6.07;;
64297;SDS011;50639;53.270;7.956;2023-09-30T07:58:59;18.02;;;5.28;;
64297;SDS011;50639;53.270;7.956;2023-09-30T08:01:24;14.45;;;5.90;;
64297;SDS011;50639;53.270;7.956;2023-09-30T08:03:50;14.85;;;5.97;;
64297;SDS011;50639;53.270;7.956;2023-09-30T08:06:15;21.73;;;6.78;;
64297;SDS011;50639;53.270;7.956;2023-09-30T08:08:41;18.33;;;6.18;;
64297;SDS011;50639;53.270;7.956;2023-09-30T08:11:06;17.15;;;6.00;;
64297;SDS011;50639;53.270;7.956;2023-09-30T08:13:32;17.70;;;5.82;;
64297;SDS011;50639;53.270;7.956;2023-09-30T08:15:58;15.75;;;5.85;;
64297;SDS011;50639;53.270;7.956;2023-09-30T08:18:24;14.52;;;5.45;;
64297;SDS011;50639;53.270;7.956;2023-09-30T08:20:49;20.58;;;5.05;;
64297;SDS011;50639;53.270;7.956;2023-09-30T08:23:15;14.30;;;5.25;;
64297;SDS011;50639;53.270;7.956;2023-09-30T08:25:41;19.50;;;6.07;;
64297;SDS011;50639;53.270;7.956;2023-09-30T08:28:06;17.50;;;5.68;;
64297;SDS011;50639;53.270;7.956;2023-09-30T08:30:34;18.23;;;5.47;;
64297;SDS011;50639;53.270;7.956;2023-09-30T08:33:01;19.35;;;5.90;;
64297;SDS011;50639;53.270;7.956;2023-09-30T08:35:28;18.30;;;5.28;;
64297;SDS011;50639;53.270;7.956;2023-09-30T08:37:54;17.08;;;5.50;;
64297;SDS011;50639;53.270;7.956;2023-09-30T08:40:20;19.75;;;5.50;;
64297;SDS011;50639;53.270;7.956;2023-09-30T08:42:48;21.38;;;5.82;;
64297;SDS011;50639;53.270;7.956;2023-09-30T08:45:17;18.35;;;5.57;;
64297;SDS011;50639;53.270;7.956;2023-09-30T08:47:43;16.80;;;5.45;;
64297;SDS011;50639;53.270;7.956;2023-09-30T08:50:09;17.63;;;5.20;;
64297;SDS011;50639;53.270;7.956;2023-09-30T08:52:36;18.80;;;5.78;;
64297;SDS011;50639;53.270;7.956;2023-09-30T08:55:04;13.85;;;5.07;;
64297;SDS011;50639;53.270;7.956;2023-09-30T08:57:30;18.27;;;4.88;;
64297;SDS011;50639;53.270;7.956;2023-09-30T08:59:56;14.30;;;4.95;;
64297;SDS011;50639;53.270;7.956;2023-09-30T09:02:23;17.63;;;5.63;;
64297;SDS011;50639;53.270;7.956;2023-09-30T09:04:49;15.45;;;5.53;;
64297;SDS011;50639;53.270;7.956;2023-09-30T09:07:14;14.63;;;4.93;;
64297;SDS011;50639;53.270;7.956;2023-09-30T09:09:40;19.88;;;5.85;;
64297;SDS011;50639;53.270;7.956;2023-09-30T09:12:06;15.23;;;5.40;;
64297;SDS011;50639;53.270;7.956;2023-09-30T09:14:43;17.33;;;5.57;;
64297;SDS011;50639;53.270;7.956;2023-09-30T09:17:10;15.07;;;5.10;;
64297;SDS011;50639;53.270;7.956;2023-09-30T09:19:36;14.13;;;4.88;;
64297;SDS011;50639;53.270;7.956;2023-09-30T09:22:02;13.18;;;4.45;;
64297;SDS011;50639;53.270;7.956;2023-09-30T09:24:34;14.27;;;4.82;;
64297;SDS011;50639;53.270;7.956;2023-09-30T09:27:03;18.02;;;5.40;;
64297;SDS011;50639;53.270;7.956;2023-09-30T09:29:41;17.23;;;5.30;;
64297;SDS011;50639;53.270;7.956;2023-09-30T09:32:10;14.93;;;5.78;;
64297;SDS011;50639;53.270;7.956;2023-09-30T09:34:36;13.57;;;5.00;;
64297;SDS011;50639;53.270;7.956;2023-09-30T09:37:12;16.48;;;5.10;;
64297;SDS011;50639;53.270;7.956;2023-09-30T09:39:51;12.77;;;4.35;;
64297;SDS011;50639;53.270;7.956;2023-09-30T09:42:27;23.85;;;4.75;;
64297;SDS011;50639;53.270;7.956;2023-09-30T09:44:54;12.80;;;4.22;;
64297;SDS011;50639;53.270;7.956;2023-09-30T09:47:22;21.52;;;4.82;;
64297;SDS011;50639;53.270;7.956;2023-09-30T09:49:48;18.90;;;4.43;;
64297;SDS011;50639;53.270;7.956;2023-09-30T09:52:14;15.73;;;4.70;;
64297;SDS011;50639;53.270;7.956;2023-09-30T09:54:42;19.60;;;4.50;;
64297;SDS011;50639;53.270;7.956;2023-09-30T09:57:09;20.08;;;5.30;;
64297;SDS011;50639;53.270;7.956;2023-09-30T09:59:38;17.08;;;4.70;;
64297;SDS011;50639;53.270;7.956;2023-09-30T10:02:08;11.43;;;4.07;;
64297;SDS011;50639;53.270;7.956;2023-09-30T10:04:35;17.38;;;4.35;;
64297;SDS011;50639;53.270;7.956;2023-09-30T10:07:02;17.05;;;4.70;;
64297;SDS011;50639;53.270;7.956;2023-09-30T10:09:29;11.75;;;3.72;;
64297;SDS011;50639;53.270;7.956;2023-09-30T10:11:59;17.27;;;3.97;;
64297;SDS011;50639;53.270;7.956;2023-09-30T10:14:31;13.77;;;4.18;;
64297;SDS011;50639;53.270;7.956;2023-09-30T10:16:58;14.18;;;3.95;;
64297;SDS011;50639;53.270;7.956;2023-09-30T10:19:23;15.13;;;4.00;;
64297;SDS011;50639;53.270;7.956;2023-09-30T10:24:50;12.18;;;3.75;;
64297;SDS011;50639;53.270;7.956;2023-09-30T10:29:57;10.57;;;3.63;;
64297;SDS011;50639;53.270;7.956;2023-09-30T10:35:15;20.17;;;4.50;;
64297;SDS011;50639;53.270;7.956;2023-09-30T10:37:42;16.75;;;3.92;;
64297;SDS011;50639;53.270;7.956;2023-09-30T10:40:08;17.50;;;4.30;;
64297;SDS011;50639;53.270;7.956;2023-09-30T10:42:49;19.10;;;4.43;;
64297;SDS011;50639;53.270;7.956;2023-09-30T10:51:13;11.90;;;3.75;;
64297;SDS011;50639;53.270;7.956;2023-09-30T10:53:49;12.07;;;3.53;;
64297;SDS011;50639;53.270;7.956;2023-09-30T10:56:22;14.27;;;3.77;;
64297;SDS011;50639;53.270;7.956;2023-09-30T10:58:52;19.00;;;4.70;;
64297;SDS011;50639;53.270;7.956;2023-09-30T11:01:19;14.45;;;4.03;;
64297;SDS011;50639;53.270;7.956;2023-09-30T11:03:45;17.35;;;4.18;;
64297;SDS011;50639;53.270;7.956;2023-09-30T11:06:12;10.10;;;3.10;;
64297;SDS011;50639;53.270;7.956;2023-09-30T11:09:00;12.57;;;3.55;;
64297;SDS011;50639;53.270;7.956;2023-09-30T11:16:57;18.08;;;3.88;;
64297;SDS011;50639;53.270;7.956;2023-09-30T11:19:23;18.33;;;4.43;;
64297;SDS011;50639;53.270;7.956;2023-09-30T11:21:49;16.15;;;3.78;;
64297;SDS011;50639;53.270;7.956;2023-09-30T11:26:42;14.30;;;3.72;;
64297;SDS011;50639;53.270;7.956;2023-09-30T11:29:10;15.02;;;3.83;;
64297;SDS011;50639;53.270;7.956;2023-09-30T11:31:41;11.75;;;3.47;;
64297;SDS011;50639;53.270;7.956;2023-09-30T11:34:12;12.95;;;3.60;;
64297;SDS011;50639;53.270;7.956;2023-09-30T11:36:39;11.48;;;3.28;;
64297;SDS011;50639;53.270;7.956;2023-09-30T11:39:10;11.70;;;3.65;;
64297;SDS011;50639;53.270;7.956;2023-09-30T11:41:39;13.52;;;3.45;;
64297;SDS011;50639;53.270;7.956;2023-09-30T11:44:10;17.67;;;5.97;;
64297;SDS011;50639;53.270;7.956;2023-09-30T11:46:56;14.00;;;3.40;;
64297;SDS011;50639;53.270;7.956;2023-09-30T11:51:51;10.05;;;3.58;;
64297;SDS011;50639;53.270;7.956;2023-09-30T11:54:16;10.48;;;3.10;;
64297;SDS011;50639;53.270;7.956;2023-09-30T11:56:42;12.15;;;3.42;;
64297;SDS011;50639;53.270;7.956;2023-09-30T11:59:07;12.93;;;4.00;;
64297;SDS011;50639;53.270;7.956;2023-09-30T12:01:36;17.70;;;4.15;;
64297;SDS011;50639;53.270;7.956;2023-09-30T12:04:02;12.27;;;3.40;;
64297;SDS011;50639;53.270;7.956;2023-09-30T12:06:28;11.48;;;3.50;;
64297;SDS011;50639;53.270;7.956;2023-09-30T12:08:54;14.40;;;3.08;;
64297;SDS011;50639;53.270;7.956;2023-09-30T12:11:19;11.40;;;3.47;;
64297;SDS011;50639;53.270;7.956;2023-09-30T12:13:45;13.73;;;3.10;;
64297;SDS011;50639;53.270;7.956;2023-09-30T12:16:13;13.43;;;3.22;;
64297;SDS011;50639;53.270;7.956;2023-09-30T12:18:39;13.50;;;3.40;;
64297;SDS011;50639;53.270;7.956;2023-09-30T12:21:06;11.15;;;4.10;;
64297;SDS011;50639;53.270;7.956;2023-09-30T12:23:39;11.40;;;3.50;;
64297;SDS011;50639;53.270;7.956;2023-09-30T12:26:05;11.38;;;3.00;;
64297;SDS011;50639;53.270;7.956;2023-09-30T12:28:31;13.52;;;3.60;;
64297;SDS011;50639;53.270;7.956;2023-09-30T12:30:58;10.23;;;3.47;;
64297;SDS011;50639;53.270;7.956;2023-09-30T12:33:28;11.35;;;3.20;;
64297;SDS011;50639;53.270;7.956;2023-09-30T12:35:55;12.00;;;3.67;;
64297;SDS011;50639;53.270;7.956;2023-09-30T12:38:22;14.45;;;3.40;;
64297;SDS011;50639;53.270;7.956;2023-09-30T12:40:47;11.67;;;3.63;;
64297;SDS011;50639;53.270;7.956;2023-09-30T12:43:13;11.20;;;3.10;;
64297;SDS011;50639;53.270;7.956;2023-09-30T12:45:39;12.88;;;3.15;;
64297;SDS011;50639;53.270;7.956;2023-09-30T12:48:04;11.43;;;3.28;;
64297;SDS011;50639;53.270;7.956;2023-09-30T12:50:30;9.27;;;2.90;;
64297;SDS011;50639;53.270;7.956;2023-09-30T12:52:55;9.05;;;3.30;;
64297;SDS011;50639;53.270;7.956;2023-09-30T12:55:21;8.18;;;2.97;;
64297;SDS011;50639;53.270;7.956;2023-09-30T12:57:46;11.63;;;3.47;;
64297;SDS011;50639;53.270;7.956;2023-09-30T13:00:11;11.73;;;3.00;;
64297;SDS011;50639;53.270;7.956;2023-09-30T13:02:37;11.55;;;3.35;;
64297;SDS011;50639;53.270;7.956;2023-09-30T13:05:03;10.05;;;3.22;;
64297;SDS011;50639;53.270;7.956;2023-09-30T13:07:30;12.07;;;3.22;;
64297;SDS011;50639;53.270;7.956;2023-09-30T13:09:55;9.45;;;2.85;;
64297;SDS011;50639;53.270;7.956;2023-09-30T13:12:22;10.43;;;3.10;;
64297;SDS011;50639;53.270;7.956;2023-09-30T13:14:47;8.82;;;3.10;;
64297;SDS011;50639;53.270;7.956;2023-09-30T13:17:12;11.90;;;3.30;;
64297;SDS011;50639;53.270;7.956;2023-09-30T13:19:39;11.37;;;3.07;;
64297;SDS011;50639;53.270;7.956;2023-09-30T13:22:05;10.57;;;3.20;;
64297;SDS011;50639;53.270;7.956;2023-09-30T13:24:30;10.25;;;3.63;;
64297;SDS011;50639;53.270;7.956;2023-09-30T13:26:55;9.32;;;2.90;;
64297;SDS011;50639;53.270;7.956;2023-09-30T13:29:21;7.00;;;2.67;;
64297;SDS011;50639;53.270;7.956;2023-09-30T13:31:46;13.25;;;3.13;;
64297;SDS011;50639;53.270;7.956;2023-09-30T13:34:12;11.38;;;3.25;;
64297;SDS011;50639;53.270;7.956;2023-09-30T13:36:37;8.70;;;2.70;;
64297;SDS011;50639;53.270;7.956;2023-09-30T13:39:03;12.50;;;3.22;;
64297;SDS011;50639;53.270;7.956;2023-09-30T13:41:33;10.32;;;3.35;;
64297;SDS011;50639;53.270;7.956;2023-09-30T13:43:59;8.05;;;2.92;;
64297;SDS011;50639;53.270;7.956;2023-09-30T13:46:25;9.98;;;3.13;;
64297;SDS011;50639;53.270;7.956;2023-09-30T13:48:53;9.38;;;3.17;;
64297;SDS011;50639;53.270;7.956;2023-09-30T13:51:18;10.80;;;3.00;;
64297;SDS011;50639;53.270;7.956;2023-09-30T13:53:43;10.63;;;3.08;;
64297;SDS011;50639;53.270;7.956;2023-09-30T13:56:09;12.88;;;3.20;;
64297;SDS011;50639;53.270;7.956;2023-09-30T13:58:38;13.20;;;3.10;;
64297;SDS011;50639;53.270;7.956;2023-09-30T14:01:04;10.48;;;3.13;;
64297;SDS011;50639;53.270;7.956;2023-09-30T14:03:29;10.02;;;3.05;;
64297;SDS011;50639;53.270;7.956;2023-09-30T14:05:55;10.52;;;3.28;;
64297;SDS011;50639;53.270;7.956;2023-09-30T14:08:24;9.30;;;3.10;;
64297;SDS011;50639;53.270;7.956;2023-09-30T14:10:50;12.43;;;3.72;;
64297;SDS011;50639;53.270;7.956;2023-09-30T14:13:16;10.35;;;3.15;;
64297;SDS011;50639;53.270;7.956;2023-09-30T14:15:42;11.70;;;3.53;;
64297;SDS011;50639;53.270;7.956;2023-09-30T14:18:07;15.40;;;3.90;;
64297;SDS011;50639;53.270;7.956;2023-09-30T14:20:33;7.38;;;2.85;;
64297;SDS011;50639;53.270;7.956;2023-09-30T14:23:01;10.52;;;2.80;;
64297;SDS011;50639;53.270;7.956;2023-09-30T14:25:27;10.15;;;3.30;;
64297;SDS011;50639;53.270;7.956;2023-09-30T14:27:52;8.88;;;2.88;;
64297;SDS011;50639;53.270;7.956;2023-09-30T14:30:18;10.65;;;3.13;;
64297;SDS011;50639;53.270;7.956;2023-09-30T14:32:46;9.60;;;3.13;;
64297;SDS011;50639;53.270;7.956;2023-09-30T14:35:11;11.43;;;3.25;;
64297;SDS011;50639;53.270;7.956;2023-09-30T14:37:37;10.20;;;3.47;;
64297;SDS011;50639;53.270;7.956;2023-09-30T14:40:02;12.90;;;3.28;;
64297;SDS011;50639;53.270;7.956;2023-09-30T14:42:36;10.23;;;3.30;;
64297;SDS011;50639;53.270;7.956;2023-09-30T14:45:04;13.23;;;3.70;;
64297;SDS011;50639;53.270;7.956;2023-09-30T14:47:30;10.68;;;3.13;;
64297;SDS011;50639;53.270;7.956;2023-09-30T14:49:55;14.88;;;3.85;;
64297;SDS011;50639;53.270;7.956;2023-09-30T14:52:21;14.68;;;3.17;;
64297;SDS011;50639;53.270;7.956;2023-09-30T14:54:46;10.63;;;3.85;;
64297;SDS011;50639;53.270;7.956;2023-09-30T14:57:12;10.32;;;3.13;;
64297;SDS011;50639;53.270;7.956;2023-09-30T14:59:39;11.05;;;3.33;;
64297;SDS011;50639;53.270;7.956;2023-09-30T15:02:06;11.65;;;3.63;;